createdAt,value
2023-03-27T00:01:49.642Z,66.73
2023-03-27T00:03:55.602Z,67.25
2023-03-27T00:06:03.644Z,67.23
2023-03-27T00:08:09.350Z,66.96
2023-03-27T00:10:13.347Z,67.24
2023-03-27T00:12:17.069Z,67.06
2023-03-27T00:14:20.597Z,66.83
2023-03-27T00:16:26.749Z,67.24
2023-03-27T00:18:30.635Z,67.29
2023-03-27T00:20:37.420Z,67.05
2023-03-27T00:22:41.990Z,67.50
2023-03-27T00:24:45.596Z,67.23
2023-03-27T00:26:48.911Z,67.12
2023-03-27T00:28:52.741Z,66.92
2023-03-27T00:30:58.412Z,66.73
2023-03-27T00:33:03.958Z,66.41
2023-03-27T00:35:09.279Z,67.13
2023-03-27T00:37:14.186Z,66.72
2023-03-27T00:39:18.847Z,67.33
2023-03-27T00:41:22.427Z,66.80
2023-03-27T00:43:27.845Z,66.99
2023-03-27T00:45:35.047Z,66.75
2023-03-27T00:47:40.761Z,67.13
2023-03-27T00:49:44.859Z,67.38
2023-03-27T00:51:49.324Z,67.56
2023-03-27T00:53:56.918Z,67.74
2023-03-27T00:56:03.890Z,68.26
2023-03-27T00:58:12.289Z,68.32
2023-03-27T01:00:17.167Z,68.37
2023-03-27T01:02:24.163Z,68.45
2023-03-27T01:04:28.208Z,69.13
2023-03-27T01:06:34.680Z,68.67
2023-03-27T01:08:38.779Z,69.38
2023-03-27T01:10:54.383Z,69.67
2023-03-27T01:13:04.734Z,69.31
2023-03-27T01:15:24.678Z,69.83
2023-03-27T01:17:42.946Z,69.58
2023-03-27T01:20:13.959Z,69.47
2023-03-27T01:22:50.194Z,69.94
2023-03-27T01:25:21.901Z,70.25
2023-03-27T01:27:58.490Z,70.25
2023-03-27T01:30:15.260Z,70.28
2023-03-27T01:32:56.249Z,70.18
2023-03-27T01:35:16.545Z,70.63
2023-03-27T01:37:33.658Z,70.75
2023-03-27T01:39:49.342Z,70.30
2023-03-27T01:41:57.676Z,70.55
2023-03-27T01:44:06.108Z,71.16
2023-03-27T01:46:13.096Z,70.84
2023-03-27T01:48:23.529Z,71.03
2023-03-27T01:50:31.743Z,71.11
2023-03-27T01:52:40.867Z,71.58
2023-03-27T01:54:50.328Z,70.97
2023-03-27T01:57:02.307Z,71.40
2023-03-27T01:59:13.146Z,70.90
2023-03-27T02:01:23.047Z,71.08
2023-03-27T02:03:31.898Z,71.42
2023-03-27T02:05:41.713Z,71.44
2023-03-27T02:07:54.209Z,70.91
2023-03-27T02:10:03.062Z,71.38
2023-03-27T02:12:13.439Z,71.01
2023-03-27T02:14:22.548Z,71.40
2023-03-27T02:16:33.642Z,71.46
2023-03-27T02:18:41.673Z,71.77
2023-03-27T02:20:45.058Z,71.37
2023-03-27T02:22:49.782Z,71.13
2023-03-27T02:24:55.277Z,71.24
2023-03-27T02:27:13.154Z,72.25
2023-03-27T02:29:30.778Z,71.72
2023-03-27T02:31:54.098Z,72.13
2023-03-27T02:34:20.086Z,72.07
2023-03-27T02:36:31.607Z,71.64
2023-03-27T02:38:43.937Z,72.58
2023-03-27T02:40:56.910Z,72.48
2023-03-27T02:43:29.254Z,72.13
2023-03-27T02:45:44.549Z,72.53
2023-03-27T02:47:54.434Z,72.43
2023-03-27T02:50:02.838Z,72.28
2023-03-27T02:52:13.394Z,72.21
2023-03-27T02:54:21.864Z,72.15
2023-03-27T02:56:28.429Z,73.16
2023-03-27T02:58:37.950Z,72.73
2023-03-27T03:00:52.073Z,72.69
2023-03-27T03:03:21.092Z,73.15
2023-03-27T03:05:33.642Z,73.14
2023-03-27T03:07:38.150Z,73.16
2023-03-27T03:09:42.060Z,73.59
2023-03-27T03:11:50.095Z,73.51
2023-03-27T03:13:55.233Z,73.23
2023-03-27T03:15:58.915Z,73.60
2023-03-27T03:18:02.388Z,73.29
2023-03-27T03:20:10.435Z,72.90
2023-03-27T03:22:16.696Z,73.39
2023-03-27T03:24:21.828Z,73.49
2023-03-27T03:26:26.963Z,73.06
2023-03-27T03:28:30.584Z,72.87
2023-03-27T03:30:38.811Z,73.66
2023-03-27T03:32:47.258Z,73.25
2023-03-27T03:34:51.017Z,73.33
2023-03-27T03:36:55.175Z,72.52
2023-03-27T03:39:06.022Z,73.64
2023-03-27T03:41:10.168Z,73.48
2023-03-27T03:43:13.622Z,73.43
2023-03-27T03:45:18.037Z,72.82
2023-03-27T03:47:24.942Z,73.14
2023-03-27T03:49:28.607Z,72.99
2023-03-27T03:51:32.359Z,72.76
2023-03-27T03:53:35.737Z,72.90
2023-03-27T03:55:40.497Z,72.63
2023-03-27T03:57:47.023Z,73.15
2023-03-27T03:59:57.736Z,73.00
2023-03-27T04:02:06.247Z,72.51
2023-03-27T04:04:11.288Z,73.59
2023-03-27T04:06:37.656Z,73.44
2023-03-27T04:08:41.307Z,73.44
2023-03-27T04:11:02.149Z,73.53
2023-03-27T04:13:22.317Z,72.69
2023-03-27T04:15:33.916Z,73.16
2023-03-27T04:18:08.145Z,72.91
2023-03-27T04:20:15.282Z,72.93
2023-03-27T04:22:18.753Z,73.14
2023-03-27T04:24:23.965Z,73.42
2023-03-27T04:26:27.698Z,73.44
2023-03-27T04:28:51.726Z,73.25
2023-03-27T04:31:20.780Z,73.33
2023-03-27T04:33:46.399Z,73.01
2023-03-27T04:36:06.563Z,73.85
2023-03-27T04:38:39.185Z,73.48
2023-03-27T04:40:46.213Z,73.68
2023-03-27T04:42:50.184Z,73.59
2023-03-27T04:44:54.573Z,74.06
2023-03-27T04:47:01.751Z,73.73
2023-03-27T04:49:06.012Z,74.17
2023-03-27T04:51:26.679Z,73.66
2023-03-27T04:53:32.218Z,74.12
2023-03-27T04:55:38.126Z,74.12
2023-03-27T04:57:46.989Z,74.74
2023-03-27T04:59:51.604Z,74.47
2023-03-27T05:02:34.478Z,74.65
2023-03-27T05:04:49.811Z,74.88
2023-03-27T05:06:59.780Z,75.29
2023-03-27T05:09:04.161Z,74.95
2023-03-27T05:11:10.775Z,75.12
2023-03-27T05:13:19.595Z,74.50
2023-03-27T05:15:23.287Z,74.92
2023-03-27T05:17:27.035Z,75.65
2023-03-27T05:19:31.185Z,75.28
2023-03-27T05:21:39.093Z,75.77
2023-03-27T05:23:47.462Z,75.48
2023-03-27T05:25:59.693Z,75.29
2023-03-27T05:28:11.634Z,75.78
2023-03-27T05:30:15.951Z,75.78
2023-03-27T05:32:19.672Z,75.72
2023-03-27T05:34:30.126Z,75.79
2023-03-27T05:36:37.338Z,76.09
2023-03-27T05:38:41.159Z,75.32
2023-03-27T05:41:16.116Z,75.79
2023-03-27T05:43:23.257Z,76.29
2023-03-27T05:45:26.684Z,76.08
2023-03-27T05:47:31.489Z,76.21
2023-03-27T05:49:35.011Z,75.59
2023-03-27T05:51:47.482Z,76.19
2023-03-27T05:53:56.627Z,75.73
2023-03-27T05:56:10.610Z,76.52
2023-03-27T05:58:27.050Z,76.07
2023-03-27T06:00:38.351Z,76.41
2023-03-27T06:02:44.904Z,77.27
2023-03-27T06:04:51.119Z,86.46
2023-03-27T06:07:20.772Z,80.62
2023-03-27T06:09:25.317Z,80.11
2023-03-27T06:11:48.729Z,79.17
2023-03-27T06:13:53.853Z,78.55
2023-03-27T06:16:05.095Z,78.44
2023-03-27T06:18:17.978Z,78.00
2023-03-27T06:20:22.684Z,77.87
2023-03-27T06:22:29.441Z,78.33
2023-03-27T06:24:33.027Z,78.07
2023-03-27T06:26:40.968Z,78.07
2023-03-27T06:28:45.198Z,77.87
2023-03-27T06:30:51.291Z,78.48
2023-03-27T06:33:09.153Z,78.20
2023-03-27T06:35:14.599Z,78.06
2023-03-27T06:37:33.752Z,77.58
2023-03-27T06:39:37.317Z,78.44
2023-03-27T06:41:41.177Z,78.36
2023-03-27T06:43:50.714Z,78.53
2023-03-27T06:46:24.104Z,79.19
2023-03-27T06:48:57.531Z,79.46
2023-03-27T06:51:04.007Z,79.10
2023-03-27T06:53:19.713Z,79.35
2023-03-27T06:55:32.638Z,78.48
2023-03-27T06:57:36.233Z,79.41
2023-03-27T06:59:40.763Z,79.57
2023-03-27T07:01:46.275Z,79.44
2023-03-27T07:04:04.580Z,79.18
2023-03-27T07:06:27.144Z,79.07
2023-03-27T07:08:36.617Z,82.97
2023-03-27T07:10:41.086Z,84.48
2023-03-27T07:12:46.653Z,81.02
2023-03-27T07:14:52.567Z,79.27
2023-03-27T07:16:57.530Z,79.77
2023-03-27T07:19:05.277Z,78.73
2023-03-27T07:21:12.797Z,78.72
2023-03-27T07:23:16.340Z,78.98
2023-03-27T07:25:40.525Z,78.40
2023-03-27T07:27:48.221Z,78.48
2023-03-27T07:29:52.241Z,78.88
2023-03-27T07:32:02.842Z,78.61
2023-03-27T07:34:24.729Z,78.10
2023-03-27T07:37:03.176Z,77.34
2023-03-27T07:39:09.034Z,77.28
2023-03-27T07:41:13.570Z,77.21
2023-03-27T07:43:35.290Z,78.43
2023-03-27T07:45:39.582Z,78.33
2023-03-27T07:47:46.843Z,76.81
2023-03-27T07:49:50.568Z,77.25
2023-03-27T07:51:58.414Z,77.26
2023-03-27T07:54:04.283Z,76.01
2023-03-27T07:56:12.162Z,76.12
2023-03-27T07:58:18.308Z,75.51
2023-03-27T08:00:22.881Z,75.19
2023-03-27T08:02:38.738Z,74.88
2023-03-27T08:04:44.047Z,75.17
2023-03-27T08:06:48.866Z,74.49
2023-03-27T08:08:57.201Z,74.40
2023-03-27T08:11:05.637Z,73.68
2023-03-27T08:13:13.516Z,72.28
2023-03-27T08:15:17.392Z,71.85
2023-03-27T08:17:22.511Z,71.98
2023-03-27T08:19:26.263Z,71.62
2023-03-27T08:21:36.894Z,71.10
2023-03-27T08:23:41.551Z,70.98
2023-03-27T08:25:45.472Z,70.08
2023-03-27T08:27:49.472Z,70.21
2023-03-27T08:29:53.241Z,69.80
2023-03-27T08:31:56.621Z,69.15
2023-03-27T08:34:00.704Z,69.20
2023-03-27T08:36:11.503Z,67.43
2023-03-27T08:38:25.757Z,68.23
2023-03-27T08:40:47.777Z,67.92
2023-03-27T08:43:07.498Z,66.92
2023-03-27T08:45:19.584Z,66.59
2023-03-27T08:47:33.075Z,66.83
2023-03-27T08:49:48.819Z,66.02
2023-03-27T08:52:19.514Z,65.64
2023-03-27T08:54:31.100Z,65.95
2023-03-27T08:56:35.178Z,65.22
2023-03-27T08:58:39.071Z,65.26
2023-03-27T09:01:15.657Z,65.44
2023-03-27T09:03:24.052Z,65.53
2023-03-27T09:05:37.216Z,64.72
2023-03-27T09:07:50.055Z,64.35
2023-03-27T09:10:07.188Z,63.02
2023-03-27T09:12:40.971Z,63.52
2023-03-27T09:14:49.653Z,62.64
2023-03-27T09:16:57.428Z,62.77
2023-03-27T09:19:16.822Z,62.18
2023-03-27T09:21:24.499Z,61.63
2023-03-27T09:23:34.184Z,61.28
2023-03-27T09:26:01.077Z,61.51
2023-03-27T09:28:31.886Z,60.73
2023-03-27T09:30:40.334Z,60.25
2023-03-27T09:32:56.382Z,60.57
2023-03-27T09:35:00.639Z,60.35
2023-03-27T09:37:05.400Z,60.06
2023-03-27T09:39:13.410Z,59.27
2023-03-27T09:41:22.242Z,57.27
2023-03-27T09:43:34.042Z,55.41
2023-03-27T09:45:40.721Z,54.50
2023-03-27T09:47:53.771Z,55.22
2023-03-27T09:50:02.082Z,54.61
2023-03-27T09:52:38.474Z,53.63
2023-03-27T09:55:03.007Z,52.90
2023-03-27T09:57:15.085Z,52.86
2023-03-27T09:59:26.960Z,51.62
2023-03-27T10:01:34.794Z,51.59
2023-03-27T10:03:48.762Z,52.81
2023-03-27T10:06:06.935Z,56.09
2023-03-27T10:08:38.172Z,59.54
2023-03-27T10:10:57.662Z,60.77
2023-03-27T10:13:30.144Z,60.65
2023-03-27T10:15:36.350Z,61.15
2023-03-27T10:17:41.034Z,60.90
2023-03-27T10:19:47.939Z,60.50
2023-03-27T10:21:52.608Z,58.01
2023-03-27T10:24:04.087Z,57.61
2023-03-27T10:26:32.807Z,57.60
2023-03-27T10:28:39.018Z,58.71
2023-03-27T10:31:00.721Z,59.48
2023-03-27T10:33:35.214Z,59.91
2023-03-27T10:36:14.765Z,60.08
2023-03-27T10:38:19.368Z,59.03
2023-03-27T10:40:31.465Z,58.78
2023-03-27T10:42:41.318Z,58.32
2023-03-27T10:44:48.199Z,56.35
2023-03-27T10:46:51.846Z,54.38
2023-03-27T10:49:05.003Z,54.71
2023-03-27T10:51:43.067Z,53.75
2023-03-27T10:53:56.902Z,52.71
2023-03-27T10:56:18.162Z,52.99
2023-03-27T10:58:27.105Z,51.76
2023-03-27T11:00:38.124Z,51.75
2023-03-27T11:02:48.831Z,51.89
2023-03-27T11:04:57.345Z,52.01
2023-03-27T11:07:06.986Z,51.52
2023-03-27T11:09:16.404Z,50.95
2023-03-27T11:11:36.828Z,51.74
2023-03-27T11:13:44.612Z,51.79
2023-03-27T11:15:55.165Z,51.80
2023-03-27T11:18:22.110Z,51.42
2023-03-27T11:20:44.194Z,51.03
2023-03-27T11:23:10.311Z,50.65
2023-03-27T11:25:36.807Z,49.99
2023-03-27T11:27:46.731Z,50.99
2023-03-27T11:29:57.323Z,52.37
2023-03-27T11:32:08.703Z,53.28
2023-03-27T11:34:28.517Z,53.91
2023-03-27T11:36:43.458Z,55.32
2023-03-27T11:39:06.549Z,56.72
2023-03-27T11:41:15.275Z,57.68
2023-03-27T11:43:20.974Z,58.97
2023-03-27T11:45:27.787Z,60.12
2023-03-27T11:47:49.670Z,62.30
2023-03-27T11:50:11.418Z,63.70
2023-03-27T11:52:31.673Z,64.92
2023-03-27T11:54:48.463Z,66.23
2023-03-27T11:57:02.336Z,66.90
2023-03-27T12:00:02.355Z,68.33
2023-03-27T12:02:28.910Z,69.17
2023-03-27T12:04:46.499Z,69.65
2023-03-27T12:07:12.298Z,69.66
2023-03-27T12:09:38.413Z,69.40
2023-03-27T12:12:18.335Z,69.75
2023-03-27T12:14:56.341Z,70.89
2023-03-27T12:17:21.552Z,70.80
2023-03-27T12:19:47.921Z,68.65
2023-03-27T12:22:22.920Z,65.46
2023-03-27T12:24:36.852Z,61.96
2023-03-27T12:27:34.730Z,59.82
2023-03-27T12:30:15.114Z,57.79
2023-03-27T12:32:47.158Z,58.20
2023-03-27T12:34:55.594Z,57.05
2023-03-27T12:37:04.462Z,56.56
2023-03-27T12:39:20.001Z,54.53
2023-03-27T12:41:25.165Z,53.58
2023-03-27T12:43:41.092Z,52.89
2023-03-27T12:46:11.068Z,49.62
2023-03-27T12:48:20.324Z,50.52
2023-03-27T12:50:28.573Z,49.79
2023-03-27T12:52:33.779Z,49.71
2023-03-27T12:54:39.134Z,49.29
2023-03-27T12:57:06.648Z,48.46
2023-03-27T12:59:23.318Z,48.43
2023-03-27T13:02:09.239Z,47.75
2023-03-27T13:04:42.750Z,48.33
2023-03-27T13:07:00.098Z,46.09
2023-03-27T13:09:45.879Z,48.54
2023-03-27T13:12:07.084Z,52.73
2023-03-27T13:14:28.166Z,55.34
2023-03-27T13:16:49.684Z,59.35
2023-03-27T13:19:12.546Z,60.20
2023-03-27T13:21:39.359Z,61.61
2023-03-27T13:24:00.827Z,65.50
2023-03-27T13:26:26.684Z,68.30
2023-03-27T13:28:36.084Z,69.80
2023-03-27T13:30:50.358Z,72.31
2023-03-27T13:33:17.274Z,72.81
2023-03-27T13:35:34.392Z,72.71
2023-03-27T13:38:00.762Z,73.12
2023-03-27T13:40:27.061Z,72.89
2023-03-27T13:42:44.688Z,72.85
2023-03-27T13:44:58.736Z,74.18
2023-03-27T13:47:15.287Z,72.70
2023-03-27T13:49:47.931Z,72.82
2023-03-27T13:52:28.448Z,71.59
2023-03-27T13:54:47.811Z,70.86
2023-03-27T13:57:05.330Z,69.53
2023-03-27T13:59:47.658Z,65.39
2023-03-27T14:02:12.757Z,62.56
2023-03-27T14:04:44.732Z,59.59
2023-03-27T14:07:41.261Z,58.22
2023-03-27T14:10:01.072Z,58.60
2023-03-27T14:12:21.541Z,54.10
2023-03-27T14:14:58.948Z,54.10
2023-03-27T14:17:25.086Z,52.25
2023-03-27T14:20:06.687Z,51.02
2023-03-27T14:22:17.223Z,51.44
2023-03-27T14:24:36.753Z,54.72
2023-03-27T14:27:05.251Z,56.17
2023-03-27T14:29:10.870Z,57.54
2023-03-27T14:31:19.721Z,59.26
2023-03-27T14:33:50.004Z,60.90
2023-03-27T14:35:56.145Z,60.53
2023-03-27T14:38:03.906Z,61.00
2023-03-27T14:40:22.993Z,59.67
2023-03-27T14:42:32.802Z,57.61
2023-03-27T14:44:38.423Z,56.41
2023-03-27T14:46:50.149Z,55.64
2023-03-27T14:48:57.954Z,53.65
2023-03-27T14:51:04.466Z,52.91
2023-03-27T14:53:18.545Z,51.64
2023-03-27T14:55:49.001Z,52.37
2023-03-27T14:58:19.404Z,51.88
2023-03-27T15:00:28.921Z,50.85
2023-03-27T15:02:35.208Z,50.93
2023-03-27T15:04:43.857Z,51.11
2023-03-27T15:06:50.152Z,49.42
2023-03-27T15:09:19.202Z,48.28
2023-03-27T15:11:49.802Z,47.48
2023-03-27T15:13:57.515Z,47.60
2023-03-27T15:16:11.871Z,48.50
2023-03-27T15:18:20.558Z,49.43
2023-03-27T15:20:27.953Z,49.76
2023-03-27T15:22:39.877Z,50.67
2023-03-27T15:24:50.934Z,51.85
2023-03-27T15:26:56.761Z,55.19
2023-03-27T15:29:08.107Z,59.52
2023-03-27T15:31:15.530Z,60.19
2023-03-27T15:33:23.082Z,59.52
2023-03-27T15:35:33.485Z,56.83
2023-03-27T15:37:36.996Z,56.56
2023-03-27T15:40:00.492Z,55.22
2023-03-27T15:42:06.497Z,53.13
2023-03-27T15:44:13.316Z,52.81
2023-03-27T15:46:20.324Z,52.06
2023-03-27T15:48:30.089Z,52.11
2023-03-27T15:50:33.950Z,53.03
2023-03-27T15:52:37.412Z,54.10
2023-03-27T15:54:54.528Z,55.48
2023-03-27T15:57:09.267Z,56.17
2023-03-27T15:59:17.305Z,62.16
2023-03-27T16:01:24.972Z,59.88
2023-03-27T16:03:32.375Z,61.31
2023-03-27T16:05:43.491Z,64.74
2023-03-27T16:07:49.198Z,66.81
2023-03-27T16:09:55.927Z,67.80
2023-03-27T16:11:59.657Z,68.58
2023-03-27T16:14:03.133Z,68.21
2023-03-27T16:16:20.695Z,67.71
2023-03-27T16:18:29.161Z,66.13
2023-03-27T16:20:37.268Z,65.06
2023-03-27T16:22:41.299Z,64.21
2023-03-27T16:24:44.702Z,61.66
2023-03-27T16:26:48.563Z,62.01
2023-03-27T16:28:52.293Z,60.75
2023-03-27T16:30:56.132Z,61.31
2023-03-27T16:33:00.515Z,61.79
2023-03-27T16:35:06.060Z,62.25
2023-03-27T16:37:09.661Z,61.58
2023-03-27T16:39:12.924Z,61.19
2023-03-27T16:41:18.471Z,60.45
2023-03-27T16:43:21.772Z,60.10
2023-03-27T16:45:25.501Z,59.76
2023-03-27T16:47:29.438Z,59.15
2023-03-27T16:49:33.056Z,57.87
2023-03-27T16:51:37.719Z,58.33
2023-03-27T16:53:41.201Z,58.58
2023-03-27T16:55:45.131Z,58.94
2023-03-27T16:57:48.907Z,59.28
2023-03-27T16:59:52.701Z,59.55
2023-03-27T17:01:56.218Z,59.70
2023-03-27T17:03:59.598Z,60.14
2023-03-27T17:06:04.298Z,60.55
2023-03-27T17:08:08.987Z,60.42
2023-03-27T17:10:12.378Z,60.46
2023-03-27T17:12:15.719Z,60.47
2023-03-27T17:14:19.062Z,60.24
2023-03-27T17:16:22.580Z,60.34
2023-03-27T17:18:26.449Z,60.31
2023-03-27T17:20:29.807Z,60.28
2023-03-27T17:22:33.166Z,60.78
2023-03-27T17:24:49.102Z,60.52
2023-03-27T17:26:57.018Z,60.66
2023-03-27T17:29:00.504Z,60.34
2023-03-27T17:31:05.457Z,60.88
2023-03-27T17:33:09.280Z,60.76
2023-03-27T17:35:12.651Z,60.91
2023-03-27T17:37:16.748Z,60.58
2023-03-27T17:39:20.337Z,60.83
2023-03-27T17:41:27.046Z,61.02
2023-03-27T17:43:31.006Z,60.54
2023-03-27T17:45:34.344Z,60.49
2023-03-27T17:47:38.486Z,60.27
2023-03-27T17:49:43.219Z,60.33
2023-03-27T17:51:46.648Z,60.43
2023-03-27T17:53:50.059Z,60.53
2023-03-27T17:55:53.359Z,60.73
2023-03-27T17:58:08.945Z,60.82
2023-03-27T18:00:15.153Z,60.40
2023-03-27T18:02:20.063Z,60.52
2023-03-27T18:04:23.450Z,60.46
2023-03-27T18:06:27.045Z,60.45
2023-03-27T18:08:30.587Z,60.46
2023-03-27T18:10:35.555Z,60.80
2023-03-27T18:12:39.070Z,60.86
2023-03-27T18:14:43.970Z,60.80
2023-03-27T18:16:47.341Z,60.60
2023-03-27T18:18:54.141Z,60.58
2023-03-27T18:20:57.545Z,60.14
2023-03-27T18:23:01.276Z,60.41
2023-03-27T18:25:06.180Z,60.18
2023-03-27T18:27:09.494Z,59.73
2023-03-27T18:29:12.920Z,59.63
2023-03-27T18:31:17.704Z,59.54
2023-03-27T18:33:21.210Z,59.72
2023-03-27T18:35:24.980Z,59.68
2023-03-27T18:37:28.250Z,59.68
2023-03-27T18:39:34.796Z,59.17
2023-03-27T18:41:39.647Z,59.60
2023-03-27T18:43:43.079Z,59.56
2023-03-27T18:45:46.783Z,59.63
2023-03-27T18:47:52.089Z,59.90
2023-03-27T18:49:56.309Z,59.86
2023-03-27T18:51:59.645Z,59.47
2023-03-27T18:54:02.950Z,59.62
2023-03-27T18:56:07.302Z,59.48
2023-03-27T18:58:10.750Z,59.52
2023-03-27T19:00:18.471Z,59.33
2023-03-27T19:02:22.493Z,59.42
2023-03-27T19:04:27.300Z,59.51
2023-03-27T19:06:31.306Z,59.31
2023-03-27T19:08:37.470Z,59.47
2023-03-27T19:10:41.155Z,58.91
2023-03-27T19:12:56.592Z,58.95
2023-03-27T19:15:20.354Z,59.22
2023-03-27T19:17:49.547Z,59.23
2023-03-27T19:20:13.678Z,59.33
2023-03-27T19:22:39.903Z,59.35
2023-03-27T19:24:59.613Z,59.54
2023-03-27T19:27:02.988Z,59.40
2023-03-27T19:29:06.650Z,59.50
2023-03-27T19:31:14.625Z,59.77
2023-03-27T19:33:17.924Z,59.83
2023-03-27T19:35:22.653Z,59.75
2023-03-27T19:37:26.018Z,59.76
2023-03-27T19:39:29.365Z,59.76
2023-03-27T19:41:32.846Z,60.11
2023-03-27T19:43:36.220Z,60.12
2023-03-27T19:45:39.533Z,60.25
2023-03-27T19:47:43.427Z,60.12
2023-03-27T19:49:47.017Z,60.28
2023-03-27T19:52:19.762Z,60.29
2023-03-27T19:54:23.117Z,60.30
2023-03-27T19:56:26.557Z,60.47
2023-03-27T19:58:31.365Z,60.70
2023-03-27T20:00:38.141Z,60.91
2023-03-27T20:02:41.818Z,61.14
2023-03-27T20:04:48.134Z,60.86
2023-03-27T20:06:52.180Z,60.99
2023-03-27T20:08:57.715Z,60.91
2023-03-27T20:11:01.512Z,61.15
2023-03-27T20:13:05.281Z,61.41
2023-03-27T20:15:12.543Z,61.39
2023-03-27T20:17:27.918Z,61.55
2023-03-27T20:19:31.767Z,61.65
2023-03-27T20:21:40.555Z,61.83
2023-03-27T20:23:53.580Z,62.10
2023-03-27T20:26:04.682Z,62.03
2023-03-27T20:28:13.653Z,62.30
2023-03-27T20:30:18.252Z,62.38
2023-03-27T20:32:25.188Z,62.42
2023-03-27T20:34:28.681Z,62.66
2023-03-27T20:36:33.321Z,62.85
2023-03-27T20:38:47.007Z,63.08
2023-03-27T20:40:53.783Z,63.13
2023-03-27T20:43:05.836Z,63.82
2023-03-27T20:45:16.324Z,63.92
2023-03-27T20:47:21.342Z,64.01
2023-03-27T20:49:40.197Z,64.58
2023-03-27T20:51:44.509Z,64.66
2023-03-27T20:53:53.931Z,64.62
2023-03-27T20:56:02.953Z,64.56
2023-03-27T20:58:08.044Z,64.68
2023-03-27T21:00:14.243Z,64.82
2023-03-27T21:02:20.164Z,64.79
2023-03-27T21:04:25.571Z,64.72
2023-03-27T21:06:29.003Z,64.65
2023-03-27T21:08:32.559Z,65.04
2023-03-27T21:10:36.540Z,65.18
2023-03-27T21:12:40.751Z,65.07
2023-03-27T21:14:45.925Z,65.28
2023-03-27T21:16:49.369Z,64.82
2023-03-27T21:18:52.810Z,64.76
2023-03-27T21:20:56.238Z,65.21
2023-03-27T21:22:59.570Z,65.19
2023-03-27T21:25:02.932Z,64.83
2023-03-27T21:27:06.342Z,64.78
2023-03-27T21:29:10.692Z,65.17
2023-03-27T21:31:15.434Z,64.68
2023-03-27T21:33:19.146Z,64.90
2023-03-27T21:35:22.828Z,65.57
2023-03-27T21:37:26.655Z,65.18
2023-03-27T21:39:30.167Z,65.29
2023-03-27T21:41:33.572Z,65.63
2023-03-27T21:43:36.825Z,65.86
2023-03-27T21:45:40.258Z,65.41
2023-03-27T21:47:47.787Z,65.88
2023-03-27T21:49:51.358Z,65.78
2023-03-27T21:51:54.616Z,65.98
2023-03-27T21:53:57.932Z,65.92
2023-03-27T21:56:01.842Z,65.66
2023-03-27T21:58:06.032Z,65.69
2023-03-27T22:00:11.432Z,66.20
2023-03-27T22:02:20.626Z,66.08
2023-03-27T22:04:26.102Z,66.25
2023-03-27T22:06:29.738Z,66.42
2023-03-27T22:08:33.047Z,66.35
2023-03-27T22:10:36.817Z,65.79
2023-03-27T22:12:40.183Z,66.29
2023-03-27T22:14:43.500Z,65.84
2023-03-27T22:16:47.004Z,66.32
2023-03-27T22:18:50.365Z,65.99
2023-03-27T22:20:55.013Z,66.64
2023-03-27T22:22:58.536Z,66.55
2023-03-27T22:25:02.142Z,66.92
2023-03-27T22:27:05.474Z,66.12
2023-03-27T22:29:09.258Z,66.08
2023-03-27T22:31:12.806Z,66.29
2023-03-27T22:33:16.186Z,66.56
2023-03-27T22:35:19.927Z,66.50
2023-03-27T22:37:25.138Z,66.81
2023-03-27T22:39:29.036Z,66.83
2023-03-27T22:41:32.360Z,66.75
2023-03-27T22:43:35.847Z,66.48
2023-03-27T22:45:39.229Z,66.51
2023-03-27T22:47:42.655Z,66.63
2023-03-27T22:49:47.222Z,67.21
2023-03-27T22:51:50.751Z,67.12
2023-03-27T22:53:55.466Z,66.98
2023-03-27T22:56:00.020Z,66.66
2023-03-27T22:58:03.689Z,67.18
2023-03-27T23:00:09.061Z,66.72
2023-03-27T23:02:12.582Z,66.98
2023-03-27T23:04:16.014Z,67.37
2023-03-27T23:06:20.607Z,66.86
2023-03-27T23:08:27.119Z,66.88
2023-03-27T23:10:31.985Z,66.81
2023-03-27T23:12:35.436Z,67.24
2023-03-27T23:14:38.699Z,67.33
2023-03-27T23:16:42.056Z,67.25
2023-03-27T23:18:45.423Z,67.44
2023-03-27T23:20:48.872Z,66.80
2023-03-27T23:22:52.335Z,67.25
2023-03-27T23:24:55.673Z,66.89
2023-03-27T23:27:00.499Z,66.56
2023-03-27T23:29:03.868Z,67.53
2023-03-27T23:31:07.806Z,66.66
2023-03-27T23:33:12.341Z,66.67
2023-03-27T23:35:15.727Z,67.25
2023-03-27T23:37:19.024Z,67.35
2023-03-27T23:39:22.324Z,68.01
2023-03-27T23:41:25.712Z,67.96
2023-03-27T23:43:31.834Z,67.10
2023-03-27T23:45:35.283Z,67.29
2023-03-27T23:47:38.773Z,67.52
2023-03-27T23:49:42.659Z,67.03
2023-03-27T23:51:45.937Z,67.19
2023-03-27T23:53:49.186Z,67.32
2023-03-27T23:55:53.025Z,67.59
2023-03-27T23:57:56.429Z,67.25
